sensor_id;sensor_type;location;lat;lon;timestamp;P1;durP1;ratioP1;P2;durP2;ratioP2
18544;SDS011;9402;51.460;7.276;2023-04-26T00:00:46;13.60;;;3.40;;
18544;SDS011;9402;51.460;7.276;2023-04-26T00:02:48;14.93;;;3.55;;
18544;SDS011;9402;51.460;7.276;2023-04-26T00:04:53;12.95;;;3.85;;
18544;SDS011;9402;51.460;7.276;2023-04-26T00:06:57;13.07;;;4.10;;
18544;SDS011;9402;51.460;7.276;2023-04-26T00:09:00;12.20;;;3.03;;
18544;SDS011;9402;51.460;7.276;2023-04-26T00:11:03;16.58;;;6.47;;
18544;SDS011;9402;51.460;7.276;2023-04-26T00:13:05;13.82;;;3.80;;
18544;SDS011;9402;51.460;7.276;2023-04-26T00:15:08;15.88;;;3.88;;
18544;SDS011;9402;51.460;7.276;2023-04-26T00:17:11;9.38;;;3.75;;
18544;SDS011;9402;51.460;7.276;2023-04-26T00:19:13;16.38;;;5.53;;
18544;SDS011;9402;51.460;7.276;2023-04-26T00:21:18;17.23;;;5.22;;
18544;SDS011;9402;51.460;7.276;2023-04-26T00:23:20;13.88;;;5.80;;
18544;SDS011;9402;51.460;7.276;2023-04-26T00:25:23;14.68;;;5.82;;
18544;SDS011;9402;51.460;7.276;2023-04-26T00:27:25;12.32;;;5.78;;
18544;SDS011;9402;51.460;7.276;2023-04-26T00:29:27;14.20;;;5.43;;
18544;SDS011;9402;51.460;7.276;2023-04-26T00:31:30;12.35;;;6.30;;
18544;SDS011;9402;51.460;7.276;2023-04-26T00:33:32;16.55;;;6.57;;
18544;SDS011;9402;51.460;7.276;2023-04-26T00:35:34;13.75;;;5.40;;
18544;SDS011;9402;51.460;7.276;2023-04-26T00:37:39;19.60;;;7.03;;
18544;SDS011;9402;51.460;7.276;2023-04-26T00:39:42;16.17;;;5.15;;
18544;SDS011;9402;51.460;7.276;2023-04-26T00:41:44;16.60;;;4.53;;
18544;SDS011;9402;51.460;7.276;2023-04-26T00:43:46;12.65;;;3.67;;
18544;SDS011;9402;51.460;7.276;2023-04-26T00:45:49;14.32;;;3.53;;
18544;SDS011;9402;51.460;7.276;2023-04-26T00:47:52;19.83;;;3.30;;
18544;SDS011;9402;51.460;7.276;2023-04-26T00:49:55;11.02;;;2.83;;
18544;SDS011;9402;51.460;7.276;2023-04-26T00:51:57;13.02;;;3.50;;
18544;SDS011;9402;51.460;7.276;2023-04-26T00:54:01;8.65;;;2.22;;
18544;SDS011;9402;51.460;7.276;2023-04-26T00:56:05;14.15;;;3.72;;
18544;SDS011;9402;51.460;7.276;2023-04-26T00:58:07;13.63;;;3.42;;
18544;SDS011;9402;51.460;7.276;2023-04-26T01:00:10;14.13;;;3.90;;
18544;SDS011;9402;51.460;7.276;2023-04-26T01:02:13;15.10;;;3.90;;
18544;SDS011;9402;51.460;7.276;2023-04-26T01:04:16;11.63;;;3.28;;
18544;SDS011;9402;51.460;7.276;2023-04-26T01:06:18;16.10;;;2.65;;
18544;SDS011;9402;51.460;7.276;2023-04-26T01:08:21;15.60;;;3.70;;
18544;SDS011;9402;51.460;7.276;2023-04-26T01:31:08;21.70;;;3.72;;
18544;SDS011;9402;51.460;7.276;2023-04-26T01:33:11;10.63;;;3.72;;
18544;SDS011;9402;51.460;7.276;2023-04-26T01:35:14;11.18;;;4.22;;
18544;SDS011;9402;51.460;7.276;2023-04-26T01:37:17;12.43;;;4.05;;
18544;SDS011;9402;51.460;7.276;2023-04-26T01:39:19;14.02;;;5.25;;
18544;SDS011;9402;51.460;7.276;2023-04-26T01:41:22;16.40;;;6.22;;
18544;SDS011;9402;51.460;7.276;2023-04-26T01:43:24;17.65;;;6.63;;
18544;SDS011;9402;51.460;7.276;2023-04-26T01:45:27;16.02;;;6.38;;
18544;SDS011;9402;51.460;7.276;2023-04-26T01:47:31;12.88;;;6.20;;
18544;SDS011;9402;51.460;7.276;2023-04-26T01:49:33;12.88;;;7.05;;
18544;SDS011;9402;51.460;7.276;2023-04-26T01:51:36;19.50;;;6.60;;
18544;SDS011;9402;51.460;7.276;2023-04-26T01:53:38;17.33;;;6.05;;
18544;SDS011;9402;51.460;7.276;2023-04-26T01:55:40;16.58;;;7.40;;
18544;SDS011;9402;51.460;7.276;2023-04-26T01:57:43;22.38;;;4.18;;
18544;SDS011;9402;51.460;7.276;2023-04-26T01:59:45;15.38;;;3.90;;
18544;SDS011;9402;51.460;7.276;2023-04-26T02:01:47;11.80;;;3.38;;
18544;SDS011;9402;51.460;7.276;2023-04-26T02:03:52;14.15;;;3.50;;
18544;SDS011;9402;51.460;7.276;2023-04-26T02:05:54;14.70;;;3.90;;
18544;SDS011;9402;51.460;7.276;2023-04-26T02:07:56;13.48;;;4.30;;
18544;SDS011;9402;51.460;7.276;2023-04-26T02:09:59;23.13;;;7.07;;
18544;SDS011;9402;51.460;7.276;2023-04-26T02:12:01;20.77;;;7.65;;
18544;SDS011;9402;51.460;7.276;2023-04-26T02:14:03;14.80;;;6.00;;
18544;SDS011;9402;51.460;7.276;2023-04-26T02:16:06;18.15;;;7.97;;
18544;SDS011;9402;51.460;7.276;2023-04-26T02:18:08;16.10;;;6.18;;
18544;SDS011;9402;51.460;7.276;2023-04-26T02:20:12;19.20;;;6.70;;
18544;SDS011;9402;51.460;7.276;2023-04-26T02:22:15;15.65;;;5.97;;
18544;SDS011;9402;51.460;7.276;2023-04-26T02:24:17;20.65;;;7.40;;
18544;SDS011;9402;51.460;7.276;2023-04-26T02:26:20;17.85;;;6.55;;
18544;SDS011;9402;51.460;7.276;2023-04-26T02:28:22;13.55;;;5.97;;
18544;SDS011;9402;51.460;7.276;2023-04-26T02:30:25;19.80;;;7.10;;
18544;SDS011;9402;51.460;7.276;2023-04-26T02:32:28;15.75;;;7.22;;
18544;SDS011;9402;51.460;7.276;2023-04-26T02:34:30;18.88;;;9.02;;
18544;SDS011;9402;51.460;7.276;2023-04-26T02:36:34;16.48;;;5.18;;
18544;SDS011;9402;51.460;7.276;2023-04-26T02:38:36;17.08;;;4.68;;
18544;SDS011;9402;51.460;7.276;2023-04-26T02:40:38;13.65;;;4.10;;
18544;SDS011;9402;51.460;7.276;2023-04-26T02:42:41;15.10;;;4.60;;
18544;SDS011;9402;51.460;7.276;2023-04-26T02:44:43;16.40;;;6.80;;
18544;SDS011;9402;51.460;7.276;2023-04-26T02:46:45;13.48;;;4.45;;
18544;SDS011;9402;51.460;7.276;2023-04-26T02:48:48;14.30;;;4.95;;
18544;SDS011;9402;51.460;7.276;2023-04-26T02:50:50;14.57;;;7.28;;
18544;SDS011;9402;51.460;7.276;2023-04-26T02:52:54;14.93;;;5.43;;
18544;SDS011;9402;51.460;7.276;2023-04-26T02:54:56;15.57;;;4.75;;
18544;SDS011;9402;51.460;7.276;2023-04-26T02:57:00;13.77;;;6.82;;
18544;SDS011;9402;51.460;7.276;2023-04-26T02:59:02;13.40;;;6.95;;
18544;SDS011;9402;51.460;7.276;2023-04-26T03:01:05;18.10;;;8.95;;
18544;SDS011;9402;51.460;7.276;2023-04-26T03:03:07;12.93;;;5.57;;
18544;SDS011;9402;51.460;7.276;2023-04-26T03:05:09;25.23;;;7.82;;
18544;SDS011;9402;51.460;7.276;2023-04-26T03:07:12;17.48;;;6.70;;
18544;SDS011;9402;51.460;7.276;2023-04-26T03:09:16;16.92;;;4.80;;
18544;SDS011;9402;51.460;7.276;2023-04-26T03:11:18;15.18;;;4.43;;
18544;SDS011;9402;51.460;7.276;2023-04-26T03:13:21;12.48;;;3.38;;
18544;SDS011;9402;51.460;7.276;2023-04-26T03:15:23;16.00;;;4.30;;
18544;SDS011;9402;51.460;7.276;2023-04-26T03:17:26;18.00;;;4.65;;
18544;SDS011;9402;51.460;7.276;2023-04-26T03:19:28;10.82;;;4.95;;
18544;SDS011;9402;51.460;7.276;2023-04-26T03:21:31;14.70;;;5.20;;
18544;SDS011;9402;51.460;7.276;2023-04-26T03:23:33;19.45;;;7.75;;
18544;SDS011;9402;51.460;7.276;2023-04-26T03:25:37;15.80;;;7.25;;
18544;SDS011;9402;51.460;7.276;2023-04-26T03:27:39;18.55;;;7.55;;
18544;SDS011;9402;51.460;7.276;2023-04-26T03:29:42;24.42;;;7.10;;
18544;SDS011;9402;51.460;7.276;2023-04-26T03:31:44;14.75;;;4.78;;
18544;SDS011;9402;51.460;7.276;2023-04-26T03:33:46;14.00;;;4.72;;
18544;SDS011;9402;51.460;7.276;2023-04-26T03:35:49;12.95;;;5.10;;
18544;SDS011;9402;51.460;7.276;2023-04-26T03:37:51;20.48;;;5.82;;
18544;SDS011;9402;51.460;7.276;2023-04-26T03:39:54;20.33;;;5.10;;
18544;SDS011;9402;51.460;7.276;2023-04-26T03:41:57;25.52;;;4.35;;
18544;SDS011;9402;51.460;7.276;2023-04-26T03:44:00;14.63;;;4.75;;
18544;SDS011;9402;51.460;7.276;2023-04-26T03:46:03;15.48;;;5.28;;
18544;SDS011;9402;51.460;7.276;2023-04-26T03:48:05;14.05;;;4.85;;
18544;SDS011;9402;51.460;7.276;2023-04-26T03:50:08;12.75;;;4.80;;
18544;SDS011;9402;51.460;7.276;2023-04-26T03:52:10;19.85;;;5.28;;
18544;SDS011;9402;51.460;7.276;2023-04-26T03:54:13;17.05;;;6.30;;
18544;SDS011;9402;51.460;7.276;2023-04-26T03:56:15;16.35;;;5.40;;
18544;SDS011;9402;51.460;7.276;2023-04-26T03:58:19;11.00;;;4.55;;
18544;SDS011;9402;51.460;7.276;2023-04-26T04:00:21;17.27;;;4.82;;
18544;SDS011;9402;51.460;7.276;2023-04-26T04:02:24;15.98;;;5.60;;
18544;SDS011;9402;51.460;7.276;2023-04-26T04:04:26;18.42;;;6.95;;
18544;SDS011;9402;51.460;7.276;2023-04-26T04:06:29;14.68;;;8.55;;
18544;SDS011;9402;51.460;7.276;2023-04-26T04:08:31;16.23;;;8.73;;
18544;SDS011;9402;51.460;7.276;2023-04-26T04:10:34;23.50;;;8.00;;
18544;SDS011;9402;51.460;7.276;2023-04-26T04:12:37;15.63;;;7.38;;
18544;SDS011;9402;51.460;7.276;2023-04-26T04:14:40;18.23;;;6.78;;
18544;SDS011;9402;51.460;7.276;2023-04-26T04:16:43;18.42;;;9.35;;
18544;SDS011;9402;51.460;7.276;2023-04-26T04:18:45;16.90;;;7.28;;
18544;SDS011;9402;51.460;7.276;2023-04-26T04:20:47;16.45;;;7.80;;
18544;SDS011;9402;51.460;7.276;2023-04-26T04:22:50;23.20;;;8.15;;
18544;SDS011;9402;51.460;7.276;2023-04-26T04:24:52;14.68;;;7.07;;
18544;SDS011;9402;51.460;7.276;2023-04-26T04:26:55;18.98;;;9.05;;
18544;SDS011;9402;51.460;7.276;2023-04-26T04:28:57;19.98;;;8.18;;
18544;SDS011;9402;51.460;7.276;2023-04-26T04:31:08;13.73;;;6.88;;
18544;SDS011;9402;51.460;7.276;2023-04-26T04:33:11;14.40;;;5.57;;
18544;SDS011;9402;51.460;7.276;2023-04-26T04:35:15;13.88;;;4.68;;
18544;SDS011;9402;51.460;7.276;2023-04-26T04:37:17;13.45;;;4.50;;
18544;SDS011;9402;51.460;7.276;2023-04-26T04:39:20;13.88;;;5.90;;
18544;SDS011;9402;51.460;7.276;2023-04-26T04:41:22;14.73;;;6.43;;
18544;SDS011;9402;51.460;7.276;2023-04-26T04:43:24;15.80;;;6.40;;
18544;SDS011;9402;51.460;7.276;2023-04-26T04:45:27;17.10;;;5.20;;
18544;SDS011;9402;51.460;7.276;2023-04-26T04:47:31;20.10;;;6.78;;
18544;SDS011;9402;51.460;7.276;2023-04-26T04:49:36;18.52;;;6.53;;
18544;SDS011;9402;51.460;7.276;2023-04-26T04:51:39;21.25;;;7.47;;
18544;SDS011;9402;51.460;7.276;2023-04-26T04:53:41;19.17;;;6.78;;
18544;SDS011;9402;51.460;7.276;2023-04-26T04:55:43;28.23;;;6.53;;
18544;SDS011;9402;51.460;7.276;2023-04-26T04:57:46;17.00;;;6.03;;
18544;SDS011;9402;51.460;7.276;2023-04-26T04:59:48;19.00;;;7.05;;
18544;SDS011;9402;51.460;7.276;2023-04-26T05:01:51;18.88;;;6.75;;
18544;SDS011;9402;51.460;7.276;2023-04-26T05:03:54;18.95;;;7.07;;
18544;SDS011;9402;51.460;7.276;2023-04-26T05:05:57;19.48;;;7.15;;
18544;SDS011;9402;51.460;7.276;2023-04-26T05:08:00;19.85;;;6.60;;
18544;SDS011;9402;51.460;7.276;2023-04-26T05:10:02;18.52;;;6.75;;
18544;SDS011;9402;51.460;7.276;2023-04-26T05:12:05;16.65;;;6.15;;
18544;SDS011;9402;51.460;7.276;2023-04-26T05:14:07;17.80;;;7.68;;
18544;SDS011;9402;51.460;7.276;2023-04-26T05:16:10;25.90;;;8.10;;
18544;SDS011;9402;51.460;7.276;2023-04-26T05:18:12;22.50;;;7.70;;
18544;SDS011;9402;51.460;7.276;2023-04-26T05:20:16;14.82;;;6.50;;
18544;SDS011;9402;51.460;7.276;2023-04-26T05:22:18;24.83;;;7.28;;
18544;SDS011;9402;51.460;7.276;2023-04-26T05:24:21;19.17;;;7.50;;
18544;SDS011;9402;51.460;7.276;2023-04-26T05:26:23;22.42;;;6.80;;
18544;SDS011;9402;51.460;7.276;2023-04-26T05:28:26;17.48;;;6.43;;
18544;SDS011;9402;51.460;7.276;2023-04-26T05:30:28;16.45;;;7.00;;
18544;SDS011;9402;51.460;7.276;2023-04-26T05:32:30;19.98;;;9.27;;
18544;SDS011;9402;51.460;7.276;2023-04-26T05:34:32;22.02;;;9.27;;
18544;SDS011;9402;51.460;7.276;2023-04-26T05:36:36;20.05;;;8.30;;
18544;SDS011;9402;51.460;7.276;2023-04-26T05:38:39;16.23;;;6.57;;
18544;SDS011;9402;51.460;7.276;2023-04-26T05:40:41;16.45;;;6.88;;
18544;SDS011;9402;51.460;7.276;2023-04-26T05:42:43;18.73;;;7.63;;
18544;SDS011;9402;51.460;7.276;2023-04-26T05:44:46;18.50;;;7.97;;
18544;SDS011;9402;51.460;7.276;2023-04-26T05:46:48;18.58;;;7.22;;
18544;SDS011;9402;51.460;7.276;2023-04-26T05:48:50;21.85;;;8.27;;
18544;SDS011;9402;51.460;7.276;2023-04-26T05:50:53;22.30;;;7.55;;
18544;SDS011;9402;51.460;7.276;2023-04-26T05:52:56;17.75;;;7.80;;
18544;SDS011;9402;51.460;7.276;2023-04-26T05:54:59;24.20;;;7.70;;
18544;SDS011;9402;51.460;7.276;2023-04-26T05:57:03;22.77;;;7.72;;
18544;SDS011;9402;51.460;7.276;2023-04-26T05:59:05;22.98;;;8.23;;
18544;SDS011;9402;51.460;7.276;2023-04-26T06:01:08;24.83;;;8.32;;
18544;SDS011;9402;51.460;7.276;2023-04-26T06:03:11;22.92;;;8.98;;
18544;SDS011;9402;51.460;7.276;2023-04-26T06:05:13;21.80;;;7.55;;
18544;SDS011;9402;51.460;7.276;2023-04-26T06:07:16;26.80;;;9.40;;
18544;SDS011;9402;51.460;7.276;2023-04-26T06:09:19;21.42;;;9.82;;
18544;SDS011;9402;51.460;7.276;2023-04-26T06:11:22;25.00;;;10.85;;
18544;SDS011;9402;51.460;7.276;2023-04-26T06:13:25;23.35;;;13.23;;
18544;SDS011;9402;51.460;7.276;2023-04-26T06:15:28;30.15;;;11.57;;
18544;SDS011;9402;51.460;7.276;2023-04-26T06:17:30;26.25;;;11.50;;
18544;SDS011;9402;51.460;7.276;2023-04-26T06:19:33;30.02;;;11.00;;
18544;SDS011;9402;51.460;7.276;2023-04-26T06:21:35;33.65;;;12.43;;
18544;SDS011;9402;51.460;7.276;2023-04-26T06:23:37;32.53;;;12.10;;
18544;SDS011;9402;51.460;7.276;2023-04-26T06:25:41;24.88;;;11.20;;
18544;SDS011;9402;51.460;7.276;2023-04-26T06:27:44;29.15;;;12.20;;
18544;SDS011;9402;51.460;7.276;2023-04-26T06:29:47;30.25;;;10.70;;
18544;SDS011;9402;51.460;7.276;2023-04-26T06:31:49;25.75;;;9.45;;
18544;SDS011;9402;51.460;7.276;2023-04-26T06:33:51;26.45;;;10.25;;
18544;SDS011;9402;51.460;7.276;2023-04-26T06:35:54;22.92;;;9.63;;
18544;SDS011;9402;51.460;7.276;2023-04-26T06:37:56;28.40;;;10.18;;
18544;SDS011;9402;51.460;7.276;2023-04-26T06:39:58;33.67;;;10.27;;
18544;SDS011;9402;51.460;7.276;2023-04-26T06:42:03;22.00;;;9.57;;
18544;SDS011;9402;51.460;7.276;2023-04-26T06:44:05;25.10;;;9.13;;
18544;SDS011;9402;51.460;7.276;2023-04-26T06:46:07;26.00;;;9.80;;
18544;SDS011;9402;51.460;7.276;2023-04-26T06:48:10;29.20;;;12.60;;
18544;SDS011;9402;51.460;7.276;2023-04-26T06:50:13;23.10;;;10.80;;
18544;SDS011;9402;51.460;7.276;2023-04-26T06:52:15;26.07;;;11.40;;
18544;SDS011;9402;51.460;7.276;2023-04-26T06:54:18;28.23;;;10.47;;
18544;SDS011;9402;51.460;7.276;2023-04-26T06:56:20;27.50;;;7.90;;
18544;SDS011;9402;51.460;7.276;2023-04-26T06:58:24;24.70;;;9.63;;
18544;SDS011;9402;51.460;7.276;2023-04-26T07:00:26;26.03;;;10.07;;
18544;SDS011;9402;51.460;7.276;2023-04-26T07:02:28;23.00;;;9.53;;
18544;SDS011;9402;51.460;7.276;2023-04-26T07:04:31;15.70;;;8.07;;
18544;SDS011;9402;51.460;7.276;2023-04-26T07:06:33;26.30;;;8.67;;
18544;SDS011;9402;51.460;7.276;2023-04-26T07:08:36;21.80;;;7.90;;
18544;SDS011;9402;51.460;7.276;2023-04-26T07:10:38;18.60;;;7.07;;
18544;SDS011;9402;51.460;7.276;2023-04-26T07:12:41;19.00;;;8.20;;
18544;SDS011;9402;51.460;7.276;2023-04-26T07:14:44;17.27;;;8.87;;
18544;SDS011;9402;51.460;7.276;2023-04-26T07:16:47;31.13;;;9.37;;
18544;SDS011;9402;51.460;7.276;2023-04-26T07:18:49;20.97;;;6.17;;
18544;SDS011;9402;51.460;7.276;2023-04-26T07:20:52;19.70;;;6.77;;
18544;SDS011;9402;51.460;7.276;2023-04-26T07:22:54;34.47;;;7.67;;
18544;SDS011;9402;51.460;7.276;2023-04-26T07:24:57;14.47;;;6.70;;
18544;SDS011;9402;51.460;7.276;2023-04-26T07:26:59;21.90;;;6.80;;
18544;SDS011;9402;51.460;7.276;2023-04-26T07:29:02;16.67;;;7.53;;
18544;SDS011;9402;51.460;7.276;2023-04-26T07:31:06;21.60;;;6.60;;
18544;SDS011;9402;51.460;7.276;2023-04-26T07:33:09;17.87;;;6.53;;
18544;SDS011;9402;51.460;7.276;2023-04-26T07:35:11;18.77;;;6.47;;
18544;SDS011;9402;51.460;7.276;2023-04-26T07:37:15;21.57;;;6.23;;
18544;SDS011;9402;51.460;7.276;2023-04-26T07:39:17;16.13;;;7.03;;
18544;SDS011;9402;51.460;7.276;2023-04-26T07:41:19;12.80;;;6.27;;
18544;SDS011;9402;51.460;7.276;2023-04-26T07:43:22;27.10;;;8.13;;
18544;SDS011;9402;51.460;7.276;2023-04-26T07:45:24;21.17;;;7.47;;
18544;SDS011;9402;51.460;7.276;2023-04-26T07:47:29;13.63;;;5.37;;
18544;SDS011;9402;51.460;7.276;2023-04-26T07:49:31;10.03;;;2.77;;
18544;SDS011;9402;51.460;7.276;2023-04-26T07:51:34;12.20;;;3.30;;
18544;SDS011;9402;51.460;7.276;2023-04-26T07:53:36;14.47;;;2.70;;
18544;SDS011;9402;51.460;7.276;2023-04-26T07:55:39;12.60;;;3.23;;
18544;SDS011;9402;51.460;7.276;2023-04-26T07:57:41;13.80;;;2.77;;
18544;SDS011;9402;51.460;7.276;2023-04-26T07:59:44;12.53;;;2.87;;
18544;SDS011;9402;51.460;7.276;2023-04-26T08:01:46;18.57;;;3.17;;
18544;SDS011;9402;51.460;7.276;2023-04-26T08:03:50;18.77;;;4.00;;
18544;SDS011;9402;51.460;7.276;2023-04-26T08:05:53;15.03;;;4.07;;
18544;SDS011;9402;51.460;7.276;2023-04-26T08:07:55;14.27;;;3.90;;
18544;SDS011;9402;51.460;7.276;2023-04-26T08:09:59;19.00;;;4.10;;
18544;SDS011;9402;51.460;7.276;2023-04-26T08:12:02;17.60;;;5.50;;
18544;SDS011;9402;51.460;7.276;2023-04-26T08:14:05;15.73;;;4.30;;
18544;SDS011;9402;51.460;7.276;2023-04-26T08:16:07;13.93;;;4.83;;
18544;SDS011;9402;51.460;7.276;2023-04-26T08:18:10;15.70;;;5.33;;
18544;SDS011;9402;51.460;7.276;2023-04-26T08:20:13;16.93;;;6.20;;
18544;SDS011;9402;51.460;7.276;2023-04-26T08:22:16;11.53;;;4.90;;
18544;SDS011;9402;51.460;7.276;2023-04-26T08:24:18;15.30;;;4.30;;
18544;SDS011;9402;51.460;7.276;2023-04-26T08:26:21;22.20;;;5.93;;
18544;SDS011;9402;51.460;7.276;2023-04-26T08:28:23;14.47;;;5.90;;
18544;SDS011;9402;51.460;7.276;2023-04-26T08:30:26;16.33;;;5.80;;
18544;SDS011;9402;51.460;7.276;2023-04-26T08:32:28;15.30;;;4.70;;
18544;SDS011;9402;51.460;7.276;2023-04-26T08:34:32;16.00;;;5.70;;
18544;SDS011;9402;51.460;7.276;2023-04-26T08:36:36;15.30;;;5.40;;
18544;SDS011;9402;51.460;7.276;2023-04-26T08:38:39;18.70;;;7.10;;
18544;SDS011;9402;51.460;7.276;2023-04-26T08:40:41;24.60;;;7.20;;
18544;SDS011;9402;51.460;7.276;2023-04-26T08:42:45;18.60;;;6.40;;
18544;SDS011;9402;51.460;7.276;2023-04-26T08:44:47;17.97;;;6.33;;
18544;SDS011;9402;51.460;7.276;2023-04-26T08:46:51;15.73;;;4.77;;
18544;SDS011;9402;51.460;7.276;2023-04-26T08:48:59;18.80;;;3.87;;
18544;SDS011;9402;51.460;7.276;2023-04-26T08:51:05;9.87;;;3.60;;
18544;SDS011;9402;51.460;7.276;2023-04-26T08:53:09;16.70;;;3.50;;
18544;SDS011;9402;51.460;7.276;2023-04-26T08:55:17;15.57;;;7.13;;
18544;SDS011;9402;51.460;7.276;2023-04-26T08:57:20;18.87;;;7.87;;
18544;SDS011;9402;51.460;7.276;2023-04-26T08:59:24;17.43;;;6.33;;
18544;SDS011;9402;51.460;7.276;2023-04-26T09:01:27;19.03;;;8.53;;
18544;SDS011;9402;51.460;7.276;2023-04-26T09:03:29;21.70;;;5.93;;
18544;SDS011;9402;51.460;7.276;2023-04-26T09:05:33;15.33;;;7.60;;
18544;SDS011;9402;51.460;7.276;2023-04-26T09:07:38;16.13;;;9.03;;
18544;SDS011;9402;51.460;7.276;2023-04-26T09:09:43;13.10;;;7.23;;
18544;SDS011;9402;51.460;7.276;2023-04-26T09:11:52;16.03;;;6.63;;
18544;SDS011;9402;51.460;7.276;2023-04-26T09:13:55;19.27;;;7.37;;
18544;SDS011;9402;51.460;7.276;2023-04-26T09:15:57;10.73;;;6.70;;
18544;SDS011;9402;51.460;7.276;2023-04-26T09:18:14;21.40;;;5.23;;
18544;SDS011;9402;51.460;7.276;2023-04-26T09:20:19;14.70;;;4.30;;
18544;SDS011;9402;51.460;7.276;2023-04-26T09:22:32;19.07;;;8.30;;
18544;SDS011;9402;51.460;7.276;2023-04-26T09:24:46;13.97;;;8.90;;
18544;SDS011;9402;51.460;7.276;2023-04-26T09:26:59;14.67;;;3.87;;
18544;SDS011;9402;51.460;7.276;2023-04-26T09:29:11;19.80;;;2.83;;
18544;SDS011;9402;51.460;7.276;2023-04-26T09:31:21;12.87;;;2.67;;
18544;SDS011;9402;51.460;7.276;2023-04-26T09:33:39;17.17;;;4.73;;
18544;SDS011;9402;51.460;7.276;2023-04-26T09:35:59;13.53;;;5.23;;
18544;SDS011;9402;51.460;7.276;2023-04-26T09:38:12;12.43;;;3.17;;
18544;SDS011;9402;51.460;7.276;2023-04-26T09:40:18;11.03;;;4.70;;
18544;SDS011;9402;51.460;7.276;2023-04-26T09:42:21;8.97;;;4.20;;
18544;SDS011;9402;51.460;7.276;2023-04-26T09:44:23;16.00;;;5.87;;
18544;SDS011;9402;51.460;7.276;2023-04-26T09:46:26;11.47;;;2.30;;
18544;SDS011;9402;51.460;7.276;2023-04-26T09:48:28;10.40;;;5.10;;
18544;SDS011;9402;51.460;7.276;2023-04-26T09:50:33;11.27;;;2.97;;
18544;SDS011;9402;51.460;7.276;2023-04-26T09:52:41;13.73;;;6.10;;
18544;SDS011;9402;51.460;7.276;2023-04-26T09:54:44;13.80;;;6.17;;
18544;SDS011;9402;51.460;7.276;2023-04-26T09:56:59;18.13;;;8.67;;
18544;SDS011;9402;51.460;7.276;2023-04-26T09:59:02;20.20;;;5.70;;
18544;SDS011;9402;51.460;7.276;2023-04-26T10:01:07;11.33;;;5.70;;
18544;SDS011;9402;51.460;7.276;2023-04-26T10:03:09;13.90;;;3.03;;
18544;SDS011;9402;51.460;7.276;2023-04-26T10:05:11;14.80;;;3.00;;
18544;SDS011;9402;51.460;7.276;2023-04-26T10:07:15;16.40;;;3.40;;
18544;SDS011;9402;51.460;7.276;2023-04-26T10:09:18;15.27;;;2.80;;
18544;SDS011;9402;51.460;7.276;2023-04-26T10:11:20;18.83;;;3.70;;
18544;SDS011;9402;51.460;7.276;2023-04-26T10:13:24;15.03;;;3.70;;
18544;SDS011;9402;51.460;7.276;2023-04-26T10:15:26;15.20;;;4.77;;
18544;SDS011;9402;51.460;7.276;2023-04-26T10:17:29;17.83;;;7.90;;
18544;SDS011;9402;51.460;7.276;2023-04-26T10:19:32;11.93;;;6.20;;
18544;SDS011;9402;51.460;7.276;2023-04-26T10:21:36;13.73;;;4.10;;
18544;SDS011;9402;51.460;7.276;2023-04-26T10:23:40;14.30;;;3.83;;
18544;SDS011;9402;51.460;7.276;2023-04-26T10:25:42;16.80;;;7.60;;
18544;SDS011;9402;51.460;7.276;2023-04-26T10:27:48;11.73;;;5.93;;
18544;SDS011;9402;51.460;7.276;2023-04-26T10:30:06;19.97;;;4.03;;
18544;SDS011;9402;51.460;7.276;2023-04-26T10:32:10;12.77;;;4.43;;
18544;SDS011;9402;51.460;7.276;2023-04-26T10:34:19;18.40;;;5.97;;
18544;SDS011;9402;51.460;7.276;2023-04-26T10:36:21;12.73;;;4.17;;
18544;SDS011;9402;51.460;7.276;2023-04-26T10:38:24;14.43;;;4.20;;
18544;SDS011;9402;51.460;7.276;2023-04-26T10:40:27;14.60;;;7.60;;
18544;SDS011;9402;51.460;7.276;2023-04-26T10:42:30;13.90;;;6.77;;
18544;SDS011;9402;51.460;7.276;2023-04-26T10:44:36;16.40;;;7.07;;
18544;SDS011;9402;51.460;7.276;2023-04-26T10:46:41;16.93;;;8.23;;
18544;SDS011;9402;51.460;7.276;2023-04-26T10:48:44;17.63;;;9.70;;
18544;SDS011;9402;51.460;7.276;2023-04-26T10:53:12;17.20;;;5.27;;
18544;SDS011;9402;51.460;7.276;2023-04-26T10:55:14;14.33;;;4.90;;
18544;SDS011;9402;51.460;7.276;2023-04-26T10:57:48;14.20;;;7.50;;
18544;SDS011;9402;51.460;7.276;2023-04-26T11:04:49;19.30;;;8.77;;
18544;SDS011;9402;51.460;7.276;2023-04-26T11:06:52;19.80;;;5.37;;
18544;SDS011;9402;51.460;7.276;2023-04-26T11:08:56;17.00;;;7.50;;
18544;SDS011;9402;51.460;7.276;2023-04-26T11:11:04;19.83;;;6.07;;
18544;SDS011;9402;51.460;7.276;2023-04-26T11:13:09;14.60;;;6.50;;
18544;SDS011;9402;51.460;7.276;2023-04-26T11:15:12;19.00;;;6.83;;
18544;SDS011;9402;51.460;7.276;2023-04-26T11:17:14;11.50;;;4.23;;
18544;SDS011;9402;51.460;7.276;2023-04-26T11:19:18;19.10;;;7.90;;
18544;SDS011;9402;51.460;7.276;2023-04-26T11:21:21;17.10;;;7.40;;
18544;SDS011;9402;51.460;7.276;2023-04-26T11:23:23;16.57;;;7.27;;
18544;SDS011;9402;51.460;7.276;2023-04-26T11:25:27;11.90;;;6.43;;
18544;SDS011;9402;51.460;7.276;2023-04-26T11:27:30;12.90;;;6.47;;
18544;SDS011;9402;51.460;7.276;2023-04-26T11:29:32;18.93;;;8.50;;
18544;SDS011;9402;51.460;7.276;2023-04-26T11:31:35;15.30;;;5.70;;
18544;SDS011;9402;51.460;7.276;2023-04-26T11:33:37;12.97;;;5.87;;
18544;SDS011;9402;51.460;7.276;2023-04-26T11:35:43;12.43;;;6.20;;
18544;SDS011;9402;51.460;7.276;2023-04-26T11:37:49;15.83;;;8.20;;
18544;SDS011;9402;51.460;7.276;2023-04-26T11:39:56;28.63;;;7.10;;
18544;SDS011;9402;51.460;7.276;2023-04-26T11:42:03;17.57;;;10.40;;
18544;SDS011;9402;51.460;7.276;2023-04-26T11:44:06;15.57;;;5.90;;
18544;SDS011;9402;51.460;7.276;2023-04-26T11:46:11;15.07;;;5.60;;
18544;SDS011;9402;51.460;7.276;2023-04-26T11:48:13;16.63;;;4.97;;
18544;SDS011;9402;51.460;7.276;2023-04-26T11:50:16;22.33;;;5.27;;
18544;SDS011;9402;51.460;7.276;2023-04-26T11:52:21;15.80;;;5.57;;
18544;SDS011;9402;51.460;7.276;2023-04-26T11:54:26;15.53;;;5.27;;
18544;SDS011;9402;51.460;7.276;2023-04-26T11:56:29;16.90;;;6.30;;
18544;SDS011;9402;51.460;7.276;2023-04-26T11:58:32;10.30;;;4.63;;
18544;SDS011;9402;51.460;7.276;2023-04-26T12:00:35;19.03;;;5.80;;
18544;SDS011;9402;51.460;7.276;2023-04-26T12:02:38;14.17;;;3.10;;
18544;SDS011;9402;51.460;7.276;2023-04-26T12:04:41;16.50;;;6.40;;
18544;SDS011;9402;51.460;7.276;2023-04-26T12:06:44;13.97;;;3.20;;
18544;SDS011;9402;51.460;7.276;2023-04-26T12:08:51;16.10;;;3.00;;
18544;SDS011;9402;51.460;7.276;2023-04-26T12:10:58;16.07;;;3.10;;
18544;SDS011;9402;51.460;7.276;2023-04-26T12:13:01;13.10;;;3.50;;
18544;SDS011;9402;51.460;7.276;2023-04-26T12:15:07;10.13;;;2.80;;
18544;SDS011;9402;51.460;7.276;2023-04-26T12:17:13;14.23;;;2.77;;
18544;SDS011;9402;51.460;7.276;2023-04-26T12:19:21;10.43;;;2.73;;
18544;SDS011;9402;51.460;7.276;2023-04-26T12:21:24;10.33;;;2.80;;
18544;SDS011;9402;51.460;7.276;2023-04-26T12:23:27;15.57;;;2.40;;
18544;SDS011;9402;51.460;7.276;2023-04-26T12:25:40;12.80;;;2.77;;
18544;SDS011;9402;51.460;7.276;2023-04-26T12:27:51;11.53;;;3.37;;
18544;SDS011;9402;51.460;7.276;2023-04-26T12:29:53;12.47;;;2.93;;
18544;SDS011;9402;51.460;7.276;2023-04-26T12:31:56;12.50;;;2.83;;
18544;SDS011;9402;51.460;7.276;2023-04-26T12:33:58;13.40;;;3.00;;
18544;SDS011;9402;51.460;7.276;2023-04-26T12:36:07;15.43;;;5.90;;
18544;SDS011;9402;51.460;7.276;2023-04-26T12:38:11;14.20;;;7.50;;
18544;SDS011;9402;51.460;7.276;2023-04-26T12:40:14;14.27;;;7.33;;
18544;SDS011;9402;51.460;7.276;2023-04-26T12:42:20;10.57;;;3.10;;
18544;SDS011;9402;51.460;7.276;2023-04-26T12:44:22;9.67;;;3.30;;
18544;SDS011;9402;51.460;7.276;2023-04-26T12:46:25;14.37;;;4.67;;
18544;SDS011;9402;51.460;7.276;2023-04-26T12:48:27;11.50;;;7.20;;
18544;SDS011;9402;51.460;7.276;2023-04-26T12:50:29;9.53;;;2.70;;
18544;SDS011;9402;51.460;7.276;2023-04-26T12:52:32;12.57;;;3.47;;